sensor_id;sensor_type;location;lat;lon;timestamp;pressure;altitude;pressure_sealevel;temperature;humidity
61010;BME280;46897;55.340;86.082;2022-11-23T00:01:48;99413.97;;;-10.59;76.28
61010;BME280;46897;55.340;86.082;2022-11-23T00:04:18;99559.63;;;-9.73;76.55
61010;BME280;46897;55.340;86.082;2022-11-23T00:06:48;99555.38;;;-9.73;76.64
61010;BME280;46897;55.340;86.082;2022-11-23T00:09:18;99393.69;;;-10.83;76.28
61010;BME280;46897;55.340;86.082;2022-11-23T00:11:47;99558.63;;;-9.78;76.06
61010;BME280;46897;55.340;86.082;2022-11-23T00:14:16;99554.91;;;-9.90;76.70
61010;BME280;46897;55.340;86.082;2022-11-23T00:16:46;99482.72;;;-10.40;76.45
61010;BME280;46897;55.340;86.082;2022-11-23T00:19:15;99585.09;;;-9.78;76.38
61010;BME280;46897;55.340;86.082;2022-11-23T00:21:46;99570.56;;;-9.79;76.79
61010;BME280;46897;55.340;86.082;2022-11-23T00:24:15;99580.03;;;-9.76;76.99
61010;BME280;46897;55.340;86.082;2022-11-23T00:26:44;99446.19;;;-10.66;76.28
61010;BME280;46897;55.340;86.082;2022-11-23T00:29:13;99563.97;;;-10.01;76.92
61010;BME280;46897;55.340;86.082;2022-11-23T00:31:42;99523.50;;;-10.14;76.67
61010;BME280;46897;55.340;86.082;2022-11-23T00:34:12;99484.53;;;-10.36;76.68
61010;BME280;46897;55.340;86.082;2022-11-23T00:36:41;99539.13;;;-10.05;77.27
61010;BME280;46897;55.340;86.082;2022-11-23T00:39:12;99465.00;;;-10.64;77.16
61010;BME280;46897;55.340;86.082;2022-11-23T00:41:41;99568.50;;;-9.92;76.70
61010;BME280;46897;55.340;86.082;2022-11-23T00:44:10;99470.78;;;-10.39;76.85
61010;BME280;46897;55.340;86.082;2022-11-23T00:46:39;99620.31;;;-9.71;76.90
61010;BME280;46897;55.340;86.082;2022-11-23T00:49:08;99531.28;;;-10.11;76.54
61010;BME280;46897;55.340;86.082;2022-11-23T00:51:38;99592.88;;;-9.75;76.89
61010;BME280;46897;55.340;86.082;2022-11-23T00:54:07;99534.63;;;-10.14;76.95
61010;BME280;46897;55.340;86.082;2022-11-23T00:56:37;99514.84;;;-10.50;76.43
61010;BME280;46897;55.340;86.082;2022-11-23T00:59:08;99603.59;;;-9.88;76.17
61010;BME280;46897;55.340;86.082;2022-11-23T01:01:37;99596.50;;;-9.97;76.70
61010;BME280;46897;55.340;86.082;2022-11-23T01:04:10;99525.72;;;-10.57;76.63
61010;BME280;46897;55.340;86.082;2022-11-23T01:07:03;99471.78;;;-10.95;76.12
61010;BME280;46897;55.340;86.082;2022-11-23T01:09:32;99626.03;;;-10.10;76.29
61010;BME280;46897;55.340;86.082;2022-11-23T01:12:03;99428.94;;;-11.31;76.50
61010;BME280;46897;55.340;86.082;2022-11-23T01:14:32;99609.50;;;-10.21;76.77
61010;BME280;46897;55.340;86.082;2022-11-23T01:17:02;99633.78;;;-10.06;77.09
61010;BME280;46897;55.340;86.082;2022-11-23T01:19:31;99650.16;;;-10.01;76.67
61010;BME280;46897;55.340;86.082;2022-11-23T01:22:00;99583.81;;;-10.53;76.50
61010;BME280;46897;55.340;86.082;2022-11-23T01:24:30;99677.25;;;-10.10;77.26
61010;BME280;46897;55.340;86.082;2022-11-23T01:26:59;99646.34;;;-10.44;77.45
61010;BME280;46897;55.340;86.082;2022-11-23T01:29:30;99629.50;;;-10.65;77.84
61010;BME280;46897;55.340;86.082;2022-11-23T01:31:59;99659.22;;;-10.69;77.34
61010;BME280;46897;55.340;86.082;2022-11-23T01:34:28;99642.59;;;-10.83;77.14
61010;BME280;46897;55.340;86.082;2022-11-23T01:36:58;99738.97;;;-10.55;77.28
61010;BME280;46897;55.340;86.082;2022-11-23T01:39:27;99578.19;;;-11.50;76.86
61010;BME280;46897;55.340;86.082;2022-11-23T01:41:57;99733.59;;;-10.62;76.79
61010;BME280;46897;55.340;86.082;2022-11-23T01:44:30;99706.38;;;-11.12;75.67
61010;BME280;46897;55.340;86.082;2022-11-23T01:47:00;99784.63;;;-11.15;75.96
61010;BME280;46897;55.340;86.082;2022-11-23T01:49:33;99664.75;;;-12.28;75.56
61010;BME280;46897;55.340;86.082;2022-11-23T01:52:07;99777.78;;;-11.85;75.74
61010;BME280;46897;55.340;86.082;2022-11-23T01:54:42;99797.50;;;-12.04;76.28
61010;BME280;46897;55.340;86.082;2022-11-23T01:57:16;99619.75;;;-13.75;75.80
61010;BME280;46897;55.340;86.082;2022-11-23T01:59:49;99699.19;;;-13.43;76.19
61010;BME280;46897;55.340;86.082;2022-11-23T02:02:20;99818.81;;;-12.65;76.13
61010;BME280;46897;55.340;86.082;2022-11-23T02:04:49;99685.09;;;-13.74;76.05
61010;BME280;46897;55.340;86.082;2022-11-23T02:07:19;99695.69;;;-13.84;76.12
61010;BME280;46897;55.340;86.082;2022-11-23T02:09:51;99822.25;;;-13.23;76.31
61010;BME280;46897;55.340;86.082;2022-11-23T02:12:20;99810.34;;;-13.43;75.82
61010;BME280;46897;55.340;86.082;2022-11-23T02:14:51;99829.47;;;-13.34;76.54
61010;BME280;46897;55.340;86.082;2022-11-23T02:17:20;99898.44;;;-13.10;75.99
61010;BME280;46897;55.340;86.082;2022-11-23T02:19:54;99892.97;;;-13.17;75.67
61010;BME280;46897;55.340;86.082;2022-11-23T02:22:42;99694.84;;;-14.76;75.59
61010;BME280;46897;55.340;86.082;2022-11-23T02:25:34;99848.00;;;-13.74;75.33
61010;BME280;46897;55.340;86.082;2022-11-23T02:28:06;99780.41;;;-14.40;73.81
61010;BME280;46897;55.340;86.082;2022-11-23T02:30:37;99743.56;;;-14.85;73.78
61010;BME280;46897;55.340;86.082;2022-11-23T02:33:07;99915.00;;;-14.09;73.39
61010;BME280;46897;55.340;86.082;2022-11-23T02:35:47;99824.41;;;-15.10;73.05
61010;BME280;46897;55.340;86.082;2022-11-23T02:38:17;99806.44;;;-15.13;72.07
61010;BME280;46897;55.340;86.082;2022-11-23T02:40:47;99808.75;;;-15.51;71.62
61010;BME280;46897;55.340;86.082;2022-11-23T02:43:18;99978.63;;;-14.58;71.22
61010;BME280;46897;55.340;86.082;2022-11-23T02:45:50;99940.72;;;-15.03;70.89
61010;BME280;46897;55.340;86.082;2022-11-23T02:48:19;100006.72;;;-14.88;70.86
61010;BME280;46897;55.340;86.082;2022-11-23T02:50:48;100004.94;;;-15.06;70.79
61010;BME280;46897;55.340;86.082;2022-11-23T02:53:18;100011.72;;;-15.21;70.46
61010;BME280;46897;55.340;86.082;2022-11-23T02:55:47;100015.75;;;-15.39;70.63
61010;BME280;46897;55.340;86.082;2022-11-23T02:58:18;100021.72;;;-15.54;70.46
61010;BME280;46897;55.340;86.082;2022-11-23T03:00:47;100027.16;;;-15.63;70.46
61010;BME280;46897;55.340;86.082;2022-11-23T03:03:16;100025.75;;;-15.72;70.53
61010;BME280;46897;55.340;86.082;2022-11-23T03:05:45;100031.03;;;-15.84;70.76
61010;BME280;46897;55.340;86.082;2022-11-23T03:08:14;100048.53;;;-15.89;70.78
61010;BME280;46897;55.340;86.082;2022-11-23T03:10:43;100045.69;;;-15.93;70.76
61010;BME280;46897;55.340;86.082;2022-11-23T03:13:12;100060.25;;;-15.91;71.10
61010;BME280;46897;55.340;86.082;2022-11-23T03:15:43;100051.75;;;-16.06;70.73
61010;BME280;46897;55.340;86.082;2022-11-23T03:18:13;100076.03;;;-16.10;70.24
61010;BME280;46897;55.340;86.082;2022-11-23T03:20:42;100068.22;;;-16.13;70.54
61010;BME280;46897;55.340;86.082;2022-11-23T03:23:11;100082.91;;;-16.22;70.01
61010;BME280;46897;55.340;86.082;2022-11-23T03:25:40;100078.66;;;-16.36;69.96
61010;BME280;46897;55.340;86.082;2022-11-23T03:28:09;100103.91;;;-16.38;69.99
61010;BME280;46897;55.340;86.082;2022-11-23T03:30:38;100113.75;;;-16.42;69.96
61010;BME280;46897;55.340;86.082;2022-11-23T03:33:09;100095.06;;;-16.58;69.78
61010;BME280;46897;55.340;86.082;2022-11-23T03:35:38;100104.44;;;-16.57;69.60
61010;BME280;46897;55.340;86.082;2022-11-23T03:38:08;100142.81;;;-16.51;69.73
61010;BME280;46897;55.340;86.082;2022-11-23T03:40:37;100127.84;;;-16.74;69.85
61010;BME280;46897;55.340;86.082;2022-11-23T03:43:09;100155.78;;;-16.59;69.59
61010;BME280;46897;55.340;86.082;2022-11-23T03:45:38;100147.53;;;-16.70;69.81
61010;BME280;46897;55.340;86.082;2022-11-23T03:48:09;100141.06;;;-16.78;69.88
61010;BME280;46897;55.340;86.082;2022-11-23T03:50:38;100175.56;;;-16.67;69.75
61010;BME280;46897;55.340;86.082;2022-11-23T03:53:07;100158.44;;;-16.85;70.01
61010;BME280;46897;55.340;86.082;2022-11-23T03:55:36;100190.38;;;-16.60;70.02
61010;BME280;46897;55.340;86.082;2022-11-23T03:58:06;100190.19;;;-16.63;70.07
61010;BME280;46897;55.340;86.082;2022-11-23T04:00:35;100198.38;;;-16.67;69.96
61010;BME280;46897;55.340;86.082;2022-11-23T04:03:04;100190.97;;;-16.77;70.37
61010;BME280;46897;55.340;86.082;2022-11-23T04:05:35;100210.66;;;-16.60;70.22
61010;BME280;46897;55.340;86.082;2022-11-23T04:08:04;100225.47;;;-16.66;69.62
61010;BME280;46897;55.340;86.082;2022-11-23T04:10:33;100239.47;;;-16.71;69.36
61010;BME280;46897;55.340;86.082;2022-11-23T04:13:02;100234.13;;;-16.76;68.93
61010;BME280;46897;55.340;86.082;2022-11-23T04:15:32;100217.97;;;-16.91;68.83
61010;BME280;46897;55.340;86.082;2022-11-23T04:18:01;100239.31;;;-16.88;69.02
61010;BME280;46897;55.340;86.082;2022-11-23T04:20:33;100244.16;;;-16.91;68.74
61010;BME280;46897;55.340;86.082;2022-11-23T04:23:02;100194.41;;;-17.29;68.37
61010;BME280;46897;55.340;86.082;2022-11-23T04:25:38;100255.91;;;-17.05;68.42
61010;BME280;46897;55.340;86.082;2022-11-23T04:28:08;100263.78;;;-17.13;68.26
61010;BME280;46897;55.340;86.082;2022-11-23T04:30:37;100269.22;;;-17.20;68.28
61010;BME280;46897;55.340;86.082;2022-11-23T04:33:06;100276.06;;;-17.31;68.35
61010;BME280;46897;55.340;86.082;2022-11-23T04:35:37;100271.47;;;-17.37;68.10
61010;BME280;46897;55.340;86.082;2022-11-23T04:38:06;100288.94;;;-17.53;68.04
61010;BME280;46897;55.340;86.082;2022-11-23T04:40:35;100298.41;;;-17.63;68.05
61010;BME280;46897;55.340;86.082;2022-11-23T04:43:04;100313.78;;;-17.59;68.07
61010;BME280;46897;55.340;86.082;2022-11-23T04:45:37;100290.31;;;-17.82;68.06
61010;BME280;46897;55.340;86.082;2022-11-23T04:48:07;100323.72;;;-17.74;68.27
61010;BME280;46897;55.340;86.082;2022-11-23T04:50:37;100327.56;;;-17.79;68.23
61010;BME280;46897;55.340;86.082;2022-11-23T04:53:12;100345.94;;;-17.82;68.41
61010;BME280;46897;55.340;86.082;2022-11-23T04:55:41;100321.59;;;-17.93;68.34
61010;BME280;46897;55.340;86.082;2022-11-23T04:58:10;100368.47;;;-17.73;68.95
61010;BME280;46897;55.340;86.082;2022-11-23T05:00:39;100358.22;;;-17.75;68.72
61010;BME280;46897;55.340;86.082;2022-11-23T05:03:09;100358.88;;;-17.66;68.66
61010;BME280;46897;55.340;86.082;2022-11-23T05:05:40;100377.13;;;-17.58;68.42
61010;BME280;46897;55.340;86.082;2022-11-23T05:08:09;100364.50;;;-17.70;68.31
61010;BME280;46897;55.340;86.082;2022-11-23T05:10:39;100381.78;;;-17.64;68.43
61010;BME280;46897;55.340;86.082;2022-11-23T05:13:08;100384.63;;;-17.71;68.29
61010;BME280;46897;55.340;86.082;2022-11-23T05:15:37;100389.47;;;-17.63;68.59
61010;BME280;46897;55.340;86.082;2022-11-23T05:18:06;100372.53;;;-17.64;68.28
61010;BME280;46897;55.340;86.082;2022-11-23T05:20:38;100383.84;;;-17.58;68.51
61010;BME280;46897;55.340;86.082;2022-11-23T05:23:09;100377.03;;;-17.59;68.56
61010;BME280;46897;55.340;86.082;2022-11-23T05:25:38;100380.09;;;-17.40;68.78
61010;BME280;46897;55.340;86.082;2022-11-23T05:28:08;100367.97;;;-17.44;68.96
61010;BME280;46897;55.340;86.082;2022-11-23T05:31:02;100397.69;;;-17.05;69.04
61010;BME280;46897;55.340;86.082;2022-11-23T05:33:31;100392.59;;;-16.93;69.01
61010;BME280;46897;55.340;86.082;2022-11-23T05:36:02;100330.84;;;-17.20;68.92
61010;BME280;46897;55.340;86.082;2022-11-23T05:38:33;100413.47;;;-16.84;69.17
61010;BME280;46897;55.340;86.082;2022-11-23T05:41:03;100399.34;;;-16.80;68.73
61010;BME280;46897;55.340;86.082;2022-11-23T05:43:32;100394.00;;;-16.71;68.81
61010;BME280;46897;55.340;86.082;2022-11-23T05:46:02;100400.97;;;-16.55;69.04
61010;BME280;46897;55.340;86.082;2022-11-23T05:48:32;100412.75;;;-16.56;68.79
61010;BME280;46897;55.340;86.082;2022-11-23T05:51:02;100407.69;;;-16.56;68.30
61010;BME280;46897;55.340;86.082;2022-11-23T05:53:32;100427.00;;;-16.58;68.32
61010;BME280;46897;55.340;86.082;2022-11-23T05:56:01;100416.75;;;-16.59;67.94
61010;BME280;46897;55.340;86.082;2022-11-23T05:58:30;100431.84;;;-16.61;68.05
61010;BME280;46897;55.340;86.082;2022-11-23T06:01:00;100404.53;;;-16.65;67.58
61010;BME280;46897;55.340;86.082;2022-11-23T06:03:29;100430.72;;;-16.53;67.87
61010;BME280;46897;55.340;86.082;2022-11-23T06:05:58;100446.91;;;-16.51;67.74
61010;BME280;46897;55.340;86.082;2022-11-23T06:08:28;100432.00;;;-16.46;67.50
61010;BME280;46897;55.340;86.082;2022-11-23T06:10:59;100433.16;;;-16.54;67.50
61010;BME280;46897;55.340;86.082;2022-11-23T06:13:29;100442.47;;;-16.41;67.75
61010;BME280;46897;55.340;86.082;2022-11-23T06:15:58;100449.53;;;-16.24;68.04
61010;BME280;46897;55.340;86.082;2022-11-23T06:18:30;100460.00;;;-16.06;68.07
61010;BME280;46897;55.340;86.082;2022-11-23T06:20:59;100447.22;;;-16.08;67.72
61010;BME280;46897;55.340;86.082;2022-11-23T06:23:30;100447.13;;;-15.96;67.46
61010;BME280;46897;55.340;86.082;2022-11-23T06:25:59;100440.28;;;-16.10;67.82
61010;BME280;46897;55.340;86.082;2022-11-23T06:28:29;100476.13;;;-15.92;67.61
61010;BME280;46897;55.340;86.082;2022-11-23T06:31:01;100466.94;;;-15.90;67.66
61010;BME280;46897;55.340;86.082;2022-11-23T06:33:31;100482.28;;;-15.89;67.70
61010;BME280;46897;55.340;86.082;2022-11-23T06:36:01;100453.00;;;-15.97;67.85
61010;BME280;46897;55.340;86.082;2022-11-23T06:38:32;100472.63;;;-15.81;67.44
61010;BME280;46897;55.340;86.082;2022-11-23T06:41:02;100469.78;;;-15.86;67.43
61010;BME280;46897;55.340;86.082;2022-11-23T06:43:31;100473.38;;;-15.82;68.10
61010;BME280;46897;55.340;86.082;2022-11-23T06:46:03;100483.53;;;-15.82;67.62
61010;BME280;46897;55.340;86.082;2022-11-23T06:48:33;100454.84;;;-15.94;67.95
61010;BME280;46897;55.340;86.082;2022-11-23T06:51:02;100471.03;;;-15.92;68.16
61010;BME280;46897;55.340;86.082;2022-11-23T06:53:33;100501.78;;;-15.74;67.92
61010;BME280;46897;55.340;86.082;2022-11-23T06:56:03;100492.53;;;-15.87;67.63
61010;BME280;46897;55.340;86.082;2022-11-23T06:58:32;100456.28;;;-16.11;67.65
61010;BME280;46897;55.340;86.082;2022-11-23T07:01:03;100527.88;;;-15.77;67.83
61010;BME280;46897;55.340;86.082;2022-11-23T07:03:33;100466.06;;;-16.04;67.61
61010;BME280;46897;55.340;86.082;2022-11-23T07:06:04;100515.53;;;-15.71;68.00
61010;BME280;46897;55.340;86.082;2022-11-23T07:08:36;100508.41;;;-15.63;68.19
61010;BME280;46897;55.340;86.082;2022-11-23T07:11:10;100526.31;;;-15.48;68.02
61010;BME280;46897;55.340;86.082;2022-11-23T07:13:39;100514.50;;;-15.34;68.26
61010;BME280;46897;55.340;86.082;2022-11-23T07:16:11;100528.44;;;-15.01;68.40
61010;BME280;46897;55.340;86.082;2022-11-23T07:18:44;100538.22;;;-14.80;68.50
61010;BME280;46897;55.340;86.082;2022-11-23T07:21:13;100540.44;;;-14.72;67.97
61010;BME280;46897;55.340;86.082;2022-11-23T07:23:44;100527.72;;;-14.72;68.00
61010;BME280;46897;55.340;86.082;2022-11-23T07:26:13;100558.84;;;-14.48;68.01
61010;BME280;46897;55.340;86.082;2022-11-23T07:28:42;100568.91;;;-14.49;67.56
61010;BME280;46897;55.340;86.082;2022-11-23T07:31:11;100552.75;;;-14.78;67.57
61010;BME280;46897;55.340;86.082;2022-11-23T07:33:43;100573.19;;;-14.90;66.69
61010;BME280;46897;55.340;86.082;2022-11-23T07:36:13;100587.47;;;-15.05;66.56
61010;BME280;46897;55.340;86.082;2022-11-23T07:38:43;100587.34;;;-15.47;65.77
61010;BME280;46897;55.340;86.082;2022-11-23T07:41:13;100564.59;;;-15.97;65.11
61010;BME280;46897;55.340;86.082;2022-11-23T07:43:42;100580.84;;;-16.07;65.51
61010;BME280;46897;55.340;86.082;2022-11-23T07:46:12;100576.91;;;-16.15;66.56
61010;BME280;46897;55.340;86.082;2022-11-23T07:48:41;100579.13;;;-16.19;65.97
61010;BME280;46897;55.340;86.082;2022-11-23T07:51:10;100602.88;;;-16.06;66.13
61010;BME280;46897;55.340;86.082;2022-11-23T07:53:39;100613.94;;;-16.17;66.07
61010;BME280;46897;55.340;86.082;2022-11-23T07:56:10;100614.16;;;-16.14;66.17
61010;BME280;46897;55.340;86.082;2022-11-23T07:58:39;100610.25;;;-16.22;66.03
61010;BME280;46897;55.340;86.082;2022-11-23T08:01:08;100612.84;;;-16.20;66.32
61010;BME280;46897;55.340;86.082;2022-11-23T08:03:38;100634.69;;;-16.23;66.55
61010;BME280;46897;55.340;86.082;2022-11-23T08:06:08;100628.56;;;-16.50;66.16
61010;BME280;46897;55.340;86.082;2022-11-23T08:08:38;100641.94;;;-16.64;66.17
61010;BME280;46897;55.340;86.082;2022-11-23T08:11:09;100644.53;;;-16.88;66.55
61010;BME280;46897;55.340;86.082;2022-11-23T08:13:44;100613.47;;;-17.20;66.43
61010;BME280;46897;55.340;86.082;2022-11-23T08:16:13;100650.78;;;-17.06;66.48
61010;BME280;46897;55.340;86.082;2022-11-23T08:18:42;100665.28;;;-17.15;66.71
61010;BME280;46897;55.340;86.082;2022-11-23T08:21:11;100654.94;;;-17.30;66.42
61010;BME280;46897;55.340;86.082;2022-11-23T08:23:40;100650.31;;;-17.36;66.83
61010;BME280;46897;55.340;86.082;2022-11-23T08:26:11;100668.78;;;-17.37;66.89
61010;BME280;46897;55.340;86.082;2022-11-23T08:28:40;100659.88;;;-17.44;67.23
61010;BME280;46897;55.340;86.082;2022-11-23T08:31:10;100671.13;;;-17.28;67.52
61010;BME280;46897;55.340;86.082;2022-11-23T08:33:41;100664.50;;;-17.38;67.69
61010;BME280;46897;55.340;86.082;2022-11-23T08:36:10;100687.50;;;-17.23;67.87
61010;BME280;46897;55.340;86.082;2022-11-23T08:38:39;100669.59;;;-17.26;67.94
61010;BME280;46897;55.340;86.082;2022-11-23T08:41:08;100684.91;;;-17.01;68.06
61010;BME280;46897;55.340;86.082;2022-11-23T08:43:39;100671.16;;;-16.93;68.22
61010;BME280;46897;55.340;86.082;2022-11-23T08:46:08;100697.81;;;-16.74;68.25
61010;BME280;46897;55.340;86.082;2022-11-23T08:48:37;100643.84;;;-17.09;68.27
61010;BME280;46897;55.340;86.082;2022-11-23T08:51:07;100659.16;;;-17.07;67.81
61010;BME280;46897;55.340;86.082;2022-11-23T08:53:36;100693.94;;;-16.93;67.16
61010;BME280;46897;55.340;86.082;2022-11-23T08:56:07;100694.13;;;-17.01;67.60
61010;BME280;46897;55.340;86.082;2022-11-23T08:58:36;100721.22;;;-16.77;67.67
61010;BME280;46897;55.340;86.082;2022-11-23T09:01:09;100726.31;;;-16.77;67.72
61010;BME280;46897;55.340;86.082;2022-11-23T09:03:38;100740.38;;;-16.80;67.65
61010;BME280;46897;55.340;86.082;2022-11-23T09:06:08;100743.06;;;-16.91;67.21
61010;BME280;46897;55.340;86.082;2022-11-23T09:08:37;100734.34;;;-17.06;67.40
61010;BME280;46897;55.340;86.082;2022-11-23T09:11:09;100676.75;;;-17.54;67.12
61010;BME280;46897;55.340;86.082;2022-11-23T09:13:42;100757.97;;;-17.17;67.27
61010;BME280;46897;55.340;86.082;2022-11-23T09:16:17;100771.88;;;-17.34;67.09
61010;BME280;46897;55.340;86.082;2022-11-23T09:18:47;100770.50;;;-17.53;66.99
61010;BME280;46897;55.340;86.082;2022-11-23T09:21:16;100786.25;;;-17.67;66.79
61010;BME280;46897;55.340;86.082;2022-11-23T09:23:47;100770.63;;;-17.95;66.48
61010;BME280;46897;55.340;86.082;2022-11-23T09:26:16;100793.31;;;-18.07;66.74
61010;BME280;46897;55.340;86.082;2022-11-23T09:28:46;100743.28;;;-18.54;66.97
61010;BME280;46897;55.340;86.082;2022-11-23T09:31:16;100680.13;;;-18.96;66.72
61010;BME280;46897;55.340;86.082;2022-11-23T09:33:46;100783.94;;;-18.51;66.88
61010;BME280;46897;55.340;86.082;2022-11-23T09:36:15;100824.63;;;-18.48;67.43
61010;BME280;46897;55.340;86.082;2022-11-23T09:38:44;100838.00;;;-18.59;67.64
61010;BME280;46897;55.340;86.082;2022-11-23T09:41:46;100833.97;;;-18.67;67.38
61010;BME280;46897;55.340;86.082;2022-11-23T09:44:22;100834.75;;;-18.78;67.02
61010;BME280;46897;55.340;86.082;2022-11-23T09:47:06;100851.81;;;-18.86;67.50
61010;BME280;46897;55.340;86.082;2022-11-23T09:49:44;100813.53;;;-19.22;67.31
61010;BME280;46897;55.340;86.082;2022-11-23T09:52:19;100857.22;;;-19.02;67.73
61010;BME280;46897;55.340;86.082;2022-11-23T09:54:52;100863.16;;;-19.02;67.49
61010;BME280;46897;55.340;86.082;2022-11-23T09:57:26;100865.41;;;-19.05;67.89
61010;BME280;46897;55.340;86.082;2022-11-23T10:00:00;100787.50;;;-19.62;67.89
61010;BME280;46897;55.340;86.082;2022-11-23T10:02:35;100892.31;;;-19.05;67.99
61010;BME280;46897;55.340;86.082;2022-11-23T10:05:10;100890.28;;;-19.09;68.25
61010;BME280;46897;55.340;86.082;2022-11-23T10:07:51;100899.59;;;-19.08;67.94
61010;BME280;46897;55.340;86.082;2022-11-23T10:10:35;100883.06;;;-19.25;67.71
61010;BME280;46897;55.340;86.082;2022-11-23T10:13:26;100855.09;;;-19.47;67.75
61010;BME280;46897;55.340;86.082;2022-11-23T10:16:16;100895.91;;;-19.32;67.57
61010;BME280;46897;55.340;86.082;2022-11-23T10:18:55;100915.44;;;-19.30;67.60
61010;BME280;46897;55.340;86.082;2022-11-23T10:21:33;100923.50;;;-19.34;67.74
61010;BME280;46897;55.340;86.082;2022-11-23T10:24:14;100922.50;;;-19.36;68.09
61010;BME280;46897;55.340;86.082;2022-11-23T10:26:47;100931.03;;;-19.44;68.41
61010;BME280;46897;55.340;86.082;2022-11-23T10:29:25;100942.63;;;-19.46;68.06
61010;BME280;46897;55.340;86.082;2022-11-23T10:31:54;100933.50;;;-19.54;68.17
61010;BME280;46897;55.340;86.082;2022-11-23T10:34:45;100944.84;;;-19.59;68.10
61010;BME280;46897;55.340;86.082;2022-11-23T10:37:17;100963.38;;;-19.59;68.87
61010;BME280;46897;55.340;86.082;2022-11-23T10:39:49;100951.66;;;-19.58;68.85
61010;BME280;46897;55.340;86.082;2022-11-23T10:42:24;100965.41;;;-19.55;68.75
61010;BME280;46897;55.340;86.082;2022-11-23T10:44:58;100973.66;;;-19.47;68.90
61010;BME280;46897;55.340;86.082;2022-11-23T10:47:50;100971.91;;;-19.48;68.49
61010;BME280;46897;55.340;86.082;2022-11-23T10:50:24;100965.63;;;-19.62;68.83
61010;BME280;46897;55.340;86.082;2022-11-23T10:52:55;100993.00;;;-19.56;68.91
61010;BME280;46897;55.340;86.082;2022-11-23T10:55:27;100994.25;;;-19.62;68.88
61010;BME280;46897;55.340;86.082;2022-11-23T10:58:00;100993.97;;;-19.65;68.81
61010;BME280;46897;55.340;86.082;2022-11-23T11:05:36;101027.09;;;-19.70;68.85
61010;BME280;46897;55.340;86.082;2022-11-23T11:08:49;101025.72;;;-19.77;68.42
61010;BME280;46897;55.340;86.082;2022-11-23T11:12:00;101051.88;;;-19.85;68.88
61010;BME280;46897;55.340;86.082;2022-11-23T11:18:53;101054.31;;;-19.95;68.88
61010;BME280;46897;55.340;86.082;2022-11-23T11:24:55;101071.81;;;-19.97;69.48
61010;BME280;46897;55.340;86.082;2022-11-23T11:27:26;100966.25;;;-20.59;68.74
61010;BME280;46897;55.340;86.082;2022-11-23T11:30:00;101061.78;;;-20.06;68.80
61010;BME280;46897;55.340;86.082;2022-11-23T11:32:37;101076.03;;;-20.06;68.90
61010;BME280;46897;55.340;86.082;2022-11-23T11:35:12;101083.69;;;-20.05;69.44
61010;BME280;46897;55.340;86.082;2022-11-23T11:37:50;101084.75;;;-20.03;69.31
61010;BME280;46897;55.340;86.082;2022-11-23T11:40:29;101078.06;;;-20.02;68.83
61010;BME280;46897;55.340;86.082;2022-11-23T11:43:04;101095.56;;;-20.04;69.26
61010;BME280;46897;55.340;86.082;2022-11-23T11:45:37;101102.25;;;-20.04;69.10
61010;BME280;46897;55.340;86.082;2022-11-23T11:48:31;101037.44;;;-20.52;69.43
61010;BME280;46897;55.340;86.082;2022-11-23T11:51:05;101110.41;;;-20.07;69.04
61010;BME280;46897;55.340;86.082;2022-11-23T11:53:41;101038.63;;;-20.57;69.13
61010;BME280;46897;55.340;86.082;2022-11-23T11:56:20;101095.09;;;-20.27;69.03
61010;BME280;46897;55.340;86.082;2022-11-23T11:58:55;101095.84;;;-20.28;68.92
61010;BME280;46897;55.340;86.082;2022-11-23T12:01:32;101140.06;;;-20.04;69.15
61010;BME280;46897;55.340;86.082;2022-11-23T12:04:06;101149.41;;;-20.12;68.89
61010;BME280;46897;55.340;86.082;2022-11-23T12:06:42;101167.63;;;-20.14;69.01
61010;BME280;46897;55.340;86.082;2022-11-23T12:09:17;101188.72;;;-20.14;69.24
61010;BME280;46897;55.340;86.082;2022-11-23T12:11:48;101154.53;;;-20.29;68.63
61010;BME280;46897;55.340;86.082;2022-11-23T12:14:17;101179.97;;;-20.26;68.84
61010;BME280;46897;55.340;86.082;2022-11-23T12:16:51;101163.75;;;-20.38;68.63
61010;BME280;46897;55.340;86.082;2022-11-23T12:19:46;101153.38;;;-20.42;69.14
61010;BME280;46897;55.340;86.082;2022-11-23T12:22:30;101172.44;;;-20.26;68.97
61010;BME280;46897;55.340;86.082;2022-11-23T12:25:15;101185.78;;;-20.36;69.02
61010;BME280;46897;55.340;86.082;2022-11-23T12:28:01;101206.56;;;-20.38;68.87
61010;BME280;46897;55.340;86.082;2022-11-23T12:30:42;101013.66;;;-21.54;68.82
61010;BME280;46897;55.340;86.082;2022-11-23T12:33:42;101187.63;;;-20.52;68.50
61010;BME280;46897;55.340;86.082;2022-11-23T12:36:43;101196.69;;;-20.63;68.59
61010;BME280;46897;55.340;86.082;2022-11-23T12:39:28;101225.41;;;-20.52;69.00
61010;BME280;46897;55.340;86.082;2022-11-23T12:42:12;101214.16;;;-20.56;68.79
61010;BME280;46897;55.340;86.082;2022-11-23T12:45:01;101216.69;;;-20.65;69.00
61010;BME280;46897;55.340;86.082;2022-11-23T12:47:41;101254.28;;;-20.57;68.99
61010;BME280;46897;55.340;86.082;2022-11-23T12:50:20;101193.94;;;-20.84;68.36
61010;BME280;46897;55.340;86.082;2022-11-23T12:52:59;101210.63;;;-20.84;68.95
61010;BME280;46897;55.340;86.082;2022-11-23T12:55:38;101205.75;;;-21.00;68.69
61010;BME280;46897;55.340;86.082;2022-11-23T12:58:27;101219.69;;;-20.95;68.25
61010;BME280;46897;55.340;86.082;2022-11-23T13:01:01;101264.84;;;-20.79;68.68
61010;BME280;46897;55.340;86.082;2022-11-23T13:07:16;101247.50;;;-21.02;68.56
61010;BME280;46897;55.340;86.082;2022-11-23T13:10:15;101253.25;;;-21.03;68.76
61010;BME280;46897;55.340;86.082;2022-11-23T13:13:05;101269.41;;;-21.01;69.14
61010;BME280;46897;55.340;86.082;2022-11-23T13:16:09;101285.38;;;-21.09;69.21
61010;BME280;46897;55.340;86.082;2022-11-23T13:19:07;101259.19;;;-21.20;68.69